createdAt,value
2023-01-11T00:01:22.508Z,97.89
2023-01-11T00:03:51.357Z,97.71
2023-01-11T00:06:21.291Z,97.39
2023-01-11T00:08:49.879Z,97.77
2023-01-11T00:11:18.938Z,97.13
2023-01-11T00:13:47.552Z,97.32
2023-01-11T00:16:16.106Z,97.96
2023-01-11T00:18:44.703Z,97.92
2023-01-11T00:21:13.135Z,97.94
2023-01-11T00:23:43.153Z,97.95
2023-01-11T00:26:14.249Z,97.87
2023-01-11T00:28:43.018Z,97.43
2023-01-11T00:31:11.556Z,97.52
2023-01-11T00:33:40.121Z,97.50
2023-01-11T00:36:10.049Z,97.89
2023-01-11T00:38:54.217Z,97.81
2023-01-11T00:41:43.558Z,97.90
2023-01-11T00:44:30.484Z,98.12
2023-01-11T00:47:16.672Z,97.79
2023-01-11T00:49:45.838Z,97.64
2023-01-11T00:52:14.416Z,97.84
2023-01-11T00:54:43.731Z,98.29
2023-01-11T00:57:13.668Z,97.90
2023-01-11T00:59:42.268Z,97.72
2023-01-11T01:02:13.399Z,97.88
2023-01-11T01:04:43.539Z,98.41
2023-01-11T01:07:12.759Z,98.44
2023-01-11T01:09:41.205Z,98.22
2023-01-11T01:12:10.420Z,98.01
2023-01-11T01:14:39.613Z,98.57
2023-01-11T01:17:10.002Z,97.73
2023-01-11T01:19:40.279Z,98.13
2023-01-11T01:22:09.187Z,98.65
2023-01-11T01:24:37.813Z,98.72
2023-01-11T01:27:06.219Z,98.22
2023-01-11T01:29:34.648Z,98.67
2023-01-11T01:32:04.795Z,98.72
2023-01-11T01:34:37.512Z,98.74
2023-01-11T01:37:06.584Z,98.82
2023-01-11T01:39:35.476Z,98.18
2023-01-11T01:42:04.268Z,98.48
2023-01-11T01:45:02.633Z,98.27
2023-01-11T01:47:42.172Z,98.41
2023-01-11T01:50:17.804Z,98.56
2023-01-11T01:52:52.012Z,98.87
2023-01-11T01:55:30.299Z,98.46
2023-01-11T01:58:01.387Z,99.11
2023-01-11T02:00:30.129Z,98.93
2023-01-11T02:03:03.133Z,99.07
2023-01-11T02:05:31.776Z,98.99
2023-01-11T02:08:02.078Z,98.73
2023-01-11T02:10:30.653Z,99.07
2023-01-11T02:13:02.231Z,99.20
2023-01-11T02:15:31.397Z,98.69
2023-01-11T02:18:01.241Z,99.32
2023-01-11T02:20:56.529Z,99.16
2023-01-11T02:24:11.685Z,99.03
2023-01-11T02:27:07.303Z,99.15
2023-01-11T02:29:52.502Z,98.94
2023-01-11T02:32:32.920Z,99.17
2023-01-11T02:35:12.496Z,99.40
2023-01-11T02:37:52.405Z,99.20
2023-01-11T02:40:29.345Z,99.26
2023-01-11T02:43:23.567Z,99.13
2023-01-11T02:46:01.913Z,99.11
2023-01-11T02:48:38.295Z,99.20
2023-01-11T02:51:11.991Z,99.27
2023-01-11T02:53:47.471Z,99.24
2023-01-11T02:56:24.754Z,99.65
2023-01-11T02:58:56.266Z,99.09
2023-01-11T03:01:26.497Z,99.56
2023-01-11T03:03:56.189Z,99.51
2023-01-11T03:06:28.697Z,99.29
2023-01-11T03:09:32.237Z,99.61
2023-01-11T03:12:37.576Z,99.77
2023-01-11T03:15:33.283Z,99.99
2023-01-11T03:18:20.414Z,99.63
2023-01-11T03:20:57.398Z,99.43
2023-01-11T03:23:36.198Z,99.50
2023-01-11T03:26:17.358Z,99.59
2023-01-11T03:28:55.480Z,99.73
2023-01-11T03:31:32.262Z,100.00
2023-01-11T03:34:14.199Z,99.67
2023-01-11T03:36:52.228Z,99.75
2023-01-11T03:39:29.134Z,99.71
2023-01-11T03:42:01.608Z,99.94
2023-01-11T03:44:34.237Z,100.00
2023-01-11T03:47:08.433Z,100.00
2023-01-11T03:49:41.763Z,99.71
2023-01-11T03:52:13.294Z,99.85
2023-01-11T03:54:42.432Z,100.00
2023-01-11T03:57:17.978Z,99.49
2023-01-11T03:59:46.410Z,100.00
2023-01-11T04:02:19.643Z,100.00
2023-01-11T04:04:49.956Z,100.00
2023-01-11T04:07:18.773Z,100.00
2023-01-11T04:09:47.634Z,100.00
2023-01-11T04:12:16.156Z,100.00
2023-01-11T04:14:44.953Z,100.00
2023-01-11T04:17:13.504Z,100.00
2023-01-11T04:19:43.617Z,100.00
2023-01-11T04:22:13.557Z,100.00
2023-01-11T04:24:42.090Z,100.00
2023-01-11T04:27:10.742Z,100.00
2023-01-11T04:29:39.349Z,100.00
2023-01-11T04:32:07.750Z,100.00
2023-01-11T04:34:36.546Z,100.00
2023-01-11T04:37:05.081Z,100.00
2023-01-11T04:39:35.407Z,100.00
2023-01-11T04:42:22.285Z,100.00
2023-01-11T04:44:52.685Z,100.00
2023-01-11T04:47:23.844Z,100.00
2023-01-11T04:49:52.621Z,100.00
2023-01-11T04:52:22.108Z,100.00
2023-01-11T04:54:52.609Z,100.00
2023-01-11T04:57:21.729Z,100.00
2023-01-11T04:59:50.699Z,100.00
2023-01-11T05:02:19.473Z,100.00
2023-01-11T05:04:48.104Z,100.00
2023-01-11T05:07:16.643Z,100.00
2023-01-11T05:09:45.252Z,100.00
2023-01-11T05:12:15.247Z,100.00
2023-01-11T05:14:43.811Z,100.00
2023-01-11T05:17:15.476Z,100.00
2023-01-11T05:19:44.152Z,100.00
2023-01-11T05:22:13.033Z,100.00
2023-01-11T05:24:41.540Z,100.00
2023-01-11T05:27:09.914Z,100.00
2023-01-11T05:29:39.849Z,100.00
2023-01-11T05:32:08.390Z,100.00
2023-01-11T05:34:37.030Z,100.00
2023-01-11T05:37:05.819Z,100.00
2023-01-11T05:39:34.263Z,100.00
2023-01-11T05:42:02.683Z,100.00
2023-01-11T05:44:48.315Z,100.00
2023-01-11T05:47:18.348Z,100.00
2023-01-11T05:49:46.737Z,100.00
2023-01-11T05:52:15.165Z,100.00
2023-01-11T05:54:43.858Z,100.00
2023-01-11T05:57:12.392Z,100.00
2023-01-11T05:59:41.261Z,100.00
2023-01-11T06:02:10.247Z,100.00
2023-01-11T06:04:41.039Z,100.00
2023-01-11T06:07:10.132Z,100.00
2023-01-11T06:09:39.003Z,100.00
2023-01-11T06:12:08.907Z,100.00
2023-01-11T06:14:38.313Z,100.00
2023-01-11T06:17:06.990Z,99.97
2023-01-11T06:19:35.857Z,100.00
2023-01-11T06:22:06.498Z,99.90
2023-01-11T06:24:35.163Z,99.98
2023-01-11T06:27:10.294Z,100.00
2023-01-11T06:29:40.490Z,99.97
2023-01-11T06:32:11.556Z,100.00
2023-01-11T06:38:20.502Z,99.53
2023-01-11T06:40:56.504Z,99.75
2023-01-11T06:43:30.557Z,99.74
2023-01-11T06:46:02.576Z,99.63
2023-01-11T06:48:33.983Z,99.61
2023-01-11T06:51:11.110Z,99.61
2023-01-11T06:53:43.633Z,99.56
2023-01-11T06:56:24.940Z,99.68
2023-01-11T07:01:40.959Z,99.54
2023-01-11T07:04:10.029Z,100.00
2023-01-11T07:06:51.377Z,99.77
2023-01-11T07:09:27.562Z,99.50
2023-01-11T07:12:00.636Z,99.62
2023-01-11T07:14:31.507Z,99.97
2023-01-11T07:17:01.571Z,99.91
2023-01-11T07:19:32.514Z,99.94
2023-01-11T07:22:05.442Z,99.73
2023-01-11T07:24:52.956Z,99.79
2023-01-11T07:27:33.845Z,99.88
2023-01-11T07:30:17.896Z,99.65
2023-01-11T07:32:50.440Z,99.72
2023-01-11T07:35:19.479Z,99.63
2023-01-11T07:37:49.475Z,99.33
2023-01-11T07:40:21.577Z,99.57
2023-01-11T07:43:11.247Z,99.73
2023-01-11T07:45:47.024Z,99.54
2023-01-11T07:48:30.699Z,99.62
2023-01-11T07:51:02.346Z,99.50
2023-01-11T07:53:42.721Z,99.67
2023-01-11T07:56:28.636Z,99.73
2023-01-11T08:01:55.184Z,99.70
2023-01-11T08:04:34.213Z,99.20
2023-01-11T08:07:09.256Z,99.37
2023-01-11T08:09:42.365Z,99.46
2023-01-11T08:12:35.243Z,99.14
2023-01-11T08:15:07.779Z,99.45
2023-01-11T08:17:46.506Z,99.13
2023-01-11T08:20:29.328Z,99.79
2023-01-11T08:23:02.978Z,99.29
2023-01-11T08:25:33.894Z,99.39
2023-01-11T08:28:38.757Z,99.39
2023-01-11T08:34:24.823Z,99.10
2023-01-11T08:37:03.104Z,99.07
2023-01-11T08:39:36.544Z,99.23
2023-01-11T08:42:10.213Z,99.49
2023-01-11T08:47:32.353Z,99.16
2023-01-11T08:50:01.017Z,99.23
2023-01-11T08:52:29.607Z,98.72
2023-01-11T08:54:59.518Z,99.09
2023-01-11T08:57:31.081Z,98.99
2023-01-11T09:00:02.294Z,99.06
2023-01-11T09:02:32.798Z,99.19
2023-01-11T09:05:03.289Z,99.07
2023-01-11T09:07:34.034Z,98.90
2023-01-11T09:10:20.723Z,98.64
2023-01-11T09:12:53.730Z,98.27
2023-01-11T09:15:24.519Z,98.13
2023-01-11T09:17:57.633Z,97.83
2023-01-11T09:20:26.507Z,97.71
2023-01-11T09:22:55.492Z,97.61
2023-01-11T09:25:24.959Z,97.65
2023-01-11T09:27:55.329Z,98.11
2023-01-11T09:30:28.745Z,98.13
2023-01-11T09:33:05.973Z,98.09
2023-01-11T09:35:39.652Z,98.10
2023-01-11T09:38:08.900Z,97.44
2023-01-11T09:40:53.592Z,97.45
2023-01-11T09:43:27.924Z,96.95
2023-01-11T09:46:06.740Z,96.52
2023-01-11T09:48:44.366Z,96.90
2023-01-11T09:51:16.768Z,96.35
2023-01-11T09:53:52.630Z,96.11
2023-01-11T09:56:47.626Z,96.12
2023-01-11T10:02:42.399Z,96.10
2023-01-11T10:05:36.220Z,96.11
2023-01-11T10:18:59.403Z,96.73
2023-01-11T10:21:49.645Z,95.79
2023-01-11T10:24:39.216Z,95.57
2023-01-11T10:27:22.722Z,95.67
2023-01-11T10:30:13.090Z,95.53
2023-01-11T10:33:06.569Z,95.45
2023-01-11T10:36:31.146Z,95.98
2023-01-11T10:39:22.365Z,95.11
2023-01-11T10:42:02.620Z,95.28
2023-01-11T10:44:48.865Z,95.17
2023-01-11T10:47:22.842Z,95.08
2023-01-11T10:50:00.171Z,94.87
2023-01-11T10:52:40.657Z,95.36
2023-01-11T10:55:14.475Z,95.09
2023-01-11T10:57:59.827Z,95.04
2023-01-11T11:00:42.296Z,94.81
2023-01-11T11:03:55.241Z,94.57
2023-01-11T11:06:37.454Z,94.08
2023-01-11T11:09:21.465Z,94.17
2023-01-11T11:11:56.645Z,93.90
2023-01-11T11:14:35.378Z,93.51
2023-01-11T11:17:19.678Z,93.73
2023-01-11T11:19:48.517Z,93.68
2023-01-11T11:22:17.097Z,93.65
2023-01-11T11:24:51.860Z,93.06
2023-01-11T11:27:28.441Z,92.63
2023-01-11T11:29:58.698Z,92.49
2023-01-11T11:32:47.289Z,92.07
2023-01-11T11:35:32.669Z,92.07
2023-01-11T11:38:01.577Z,91.37
2023-01-11T11:40:36.630Z,91.06
2023-01-11T11:43:18.573Z,90.73
2023-01-11T11:45:56.782Z,90.67
2023-01-11T11:48:27.992Z,90.25
2023-01-11T11:50:59.141Z,90.24
2023-01-11T11:53:36.156Z,90.13
2023-01-11T11:56:17.186Z,89.46
2023-01-11T11:58:46.739Z,89.25
2023-01-11T12:01:27.891Z,88.80
2023-01-11T12:03:59.820Z,88.10
2023-01-11T12:06:30.248Z,88.07
2023-01-11T12:09:01.823Z,87.87
2023-01-11T12:11:35.984Z,86.99
2023-01-11T12:14:18.258Z,86.63
2023-01-11T12:16:47.822Z,85.95
2023-01-11T12:19:42.872Z,85.89
2023-01-11T12:22:16.248Z,85.62
2023-01-11T12:24:44.943Z,85.55
2023-01-11T12:27:32.693Z,85.18
2023-01-11T12:30:23.399Z,84.40
2023-01-11T12:33:25.529Z,84.18
2023-01-11T12:36:03.492Z,83.90
2023-01-11T12:38:40.795Z,83.69
2023-01-11T12:41:43.947Z,83.44
2023-01-11T12:44:21.900Z,83.06
2023-01-11T12:47:11.965Z,83.50
2023-01-11T12:49:47.875Z,82.98
2023-01-11T12:52:45.553Z,83.23
2023-01-11T12:55:30.551Z,82.63
2023-01-11T12:58:09.097Z,83.02
2023-01-11T13:01:22.688Z,82.31
2023-01-11T13:04:40.085Z,82.35
2023-01-11T13:07:23.381Z,82.67
2023-01-11T13:10:18.204Z,82.61
2023-01-11T13:12:53.815Z,82.38
2023-01-11T13:15:42.094Z,82.46
2023-01-11T13:18:22.971Z,82.47
2023-01-11T13:21:02.516Z,81.81
2023-01-11T13:23:40.688Z,81.29
2023-01-11T13:26:22.827Z,81.51
2023-01-11T13:28:57.856Z,81.82
2023-01-11T13:31:27.540Z,81.33
2023-01-11T13:34:04.856Z,81.74
2023-01-11T13:36:41.652Z,80.55
2023-01-11T13:39:21.964Z,80.75
2023-01-11T13:41:55.638Z,80.95
2023-01-11T13:44:28.246Z,81.02
2023-01-11T13:47:12.523Z,80.75
2023-01-11T13:49:55.347Z,80.78
2023-01-11T13:52:38.363Z,80.34
2023-01-11T13:55:24.977Z,80.46
2023-01-11T13:57:59.640Z,80.30
2023-01-11T14:00:34.722Z,80.28
2023-01-11T14:03:17.726Z,79.70
2023-01-11T14:05:56.801Z,79.93
2023-01-11T14:09:00.608Z,79.30
2023-01-11T14:11:42.272Z,79.11
2023-01-11T14:14:47.773Z,79.81
2023-01-11T14:17:32.474Z,79.71
2023-01-11T14:20:14.292Z,79.73
2023-01-11T14:22:54.520Z,79.66
2023-01-11T14:25:26.807Z,79.85
2023-01-11T14:28:30.074Z,79.90
2023-01-11T14:31:34.466Z,80.53
2023-01-11T14:35:07.863Z,80.31
2023-01-11T14:38:31.028Z,79.99
2023-01-11T14:41:48.476Z,79.82
2023-01-11T14:44:36.441Z,80.30
2023-01-11T14:47:51.719Z,80.35
2023-01-11T14:50:33.721Z,80.34
2023-01-11T14:53:06.783Z,80.58
2023-01-11T14:55:45.232Z,80.96
2023-01-11T14:58:26.415Z,81.02
2023-01-11T15:01:11.969Z,80.65
2023-01-11T15:03:58.516Z,81.13
2023-01-11T15:06:32.714Z,80.83
2023-01-11T15:09:02.929Z,81.16
2023-01-11T15:11:41.032Z,80.55
2023-01-11T15:14:26.379Z,80.91
2023-01-11T15:17:22.284Z,81.32
2023-01-11T15:19:53.440Z,81.11
2023-01-11T15:22:31.069Z,81.21
2023-01-11T15:25:03.546Z,81.30
2023-01-11T15:27:38.042Z,81.53
2023-01-11T15:30:30.968Z,80.78
2023-01-11T15:33:29.887Z,81.36
2023-01-11T15:36:08.116Z,81.22
2023-01-11T15:38:43.820Z,81.24
2023-01-11T15:41:51.826Z,81.51
2023-01-11T15:44:36.580Z,81.23
2023-01-11T15:47:31.183Z,81.76
2023-01-11T15:50:29.389Z,82.13
2023-01-11T15:53:48.910Z,81.91
2023-01-11T15:57:04.012Z,81.82
2023-01-11T16:00:33.587Z,82.97
2023-01-11T16:03:31.688Z,82.91
2023-01-11T16:06:14.237Z,83.00
2023-01-11T16:08:57.286Z,82.52
2023-01-11T16:11:35.392Z,82.83
2023-01-11T16:14:39.802Z,82.83
2023-01-11T16:17:14.297Z,82.99
2023-01-11T16:19:46.041Z,82.80
2023-01-11T16:22:19.735Z,83.00
2023-01-11T16:24:54.245Z,83.08
2023-01-11T16:27:28.416Z,83.21
2023-01-11T16:29:58.324Z,83.21
2023-01-11T16:32:32.832Z,82.91
2023-01-11T16:35:02.901Z,82.56
2023-01-11T16:37:38.507Z,82.63
2023-01-11T16:40:14.627Z,82.44
2023-01-11T16:42:48.312Z,83.08
2023-01-11T16:45:22.566Z,82.40
2023-01-11T16:48:05.880Z,82.71
2023-01-11T16:50:36.058Z,82.84
2023-01-11T16:53:05.573Z,82.73
2023-01-11T16:55:37.994Z,83.15
2023-01-11T16:58:09.151Z,83.38
2023-01-11T17:00:40.416Z,83.14
2023-01-11T17:03:29.643Z,83.16
2023-01-11T17:06:20.000Z,83.17
2023-01-11T17:08:52.244Z,82.45
2023-01-11T17:11:41.865Z,82.26
2023-01-11T17:14:47.594Z,82.44
2023-01-11T17:17:18.568Z,82.94
2023-01-11T17:19:49.498Z,82.71
2023-01-11T17:22:23.762Z,82.73
2023-01-11T17:24:56.177Z,83.42
2023-01-11T17:27:30.059Z,82.93
2023-01-11T17:30:00.963Z,82.89
2023-01-11T17:32:37.591Z,83.08
2023-01-11T17:35:12.806Z,83.06
2023-01-11T17:37:43.677Z,82.19
2023-01-11T17:40:23.773Z,82.65
2023-01-11T17:43:10.851Z,82.40
2023-01-11T17:45:40.559Z,82.49
2023-01-11T17:48:16.764Z,82.31
2023-01-11T17:50:50.070Z,82.48
2023-01-11T17:53:26.938Z,82.78
2023-01-11T17:55:57.744Z,83.01
2023-01-11T17:58:28.647Z,82.48
2023-01-11T18:01:20.844Z,82.51
2023-01-11T18:03:53.643Z,83.06
2023-01-11T18:06:30.387Z,82.55
2023-01-11T18:09:01.027Z,82.55
2023-01-11T18:11:31.967Z,82.92
2023-01-11T18:14:04.431Z,83.29
2023-01-11T18:16:33.354Z,82.69
2023-01-11T18:19:23.845Z,82.59
2023-01-11T18:21:54.554Z,82.98
2023-01-11T18:24:32.352Z,82.60
2023-01-11T18:27:27.619Z,82.88
2023-01-11T18:29:58.006Z,83.19
2023-01-11T18:32:28.494Z,82.47
2023-01-11T18:35:00.586Z,82.97
2023-01-11T18:37:29.259Z,82.99
2023-01-11T18:39:59.400Z,83.07
2023-01-11T18:42:32.701Z,82.40
2023-01-11T18:45:01.750Z,82.84
2023-01-11T18:47:30.568Z,82.62
2023-01-11T18:50:00.456Z,83.00
2023-01-11T18:52:29.718Z,83.06
2023-01-11T18:54:58.826Z,83.27
2023-01-11T18:57:27.650Z,83.12
2023-01-11T18:59:56.412Z,82.51
2023-01-11T19:02:28.374Z,83.35
2023-01-11T19:04:59.919Z,83.04
2023-01-11T19:07:28.471Z,82.85
2023-01-11T19:09:59.379Z,82.73
2023-01-11T19:12:27.818Z,82.68
2023-01-11T19:14:56.499Z,83.00
2023-01-11T19:17:27.374Z,82.30
2023-01-11T19:19:55.866Z,83.26
2023-01-11T19:22:26.744Z,83.02
2023-01-11T19:24:55.964Z,82.34
2023-01-11T19:27:24.846Z,82.36
2023-01-11T19:29:56.670Z,83.07
2023-01-11T19:32:25.825Z,82.87
2023-01-11T19:34:58.143Z,82.06
2023-01-11T19:37:30.221Z,82.60
2023-01-11T19:39:58.816Z,82.13
2023-01-11T19:42:27.497Z,81.90
2023-01-11T19:44:56.109Z,81.98
2023-01-11T19:47:24.684Z,81.81
2023-01-11T19:49:56.530Z,81.99
2023-01-11T19:52:25.097Z,82.12
2023-01-11T19:54:56.861Z,83.10
2023-01-11T19:57:25.524Z,83.80
2023-01-11T19:59:54.054Z,84.35
2023-01-11T20:02:23.477Z,84.90
2023-01-11T20:04:52.213Z,84.97
2023-01-11T20:07:20.775Z,85.74
2023-01-11T20:09:49.464Z,86.03
2023-01-11T20:12:19.736Z,86.06
2023-01-11T20:14:48.204Z,86.79
2023-01-11T20:17:21.063Z,87.03
2023-01-11T20:19:54.563Z,87.45
2023-01-11T20:22:23.641Z,87.45
2023-01-11T20:24:52.248Z,88.29
2023-01-11T20:27:22.265Z,87.95
2023-01-11T20:29:50.847Z,88.65
2023-01-11T20:32:39.881Z,88.35
2023-01-11T20:35:19.720Z,88.23
2023-01-11T20:37:55.432Z,88.81
2023-01-11T20:40:24.590Z,88.71
2023-01-11T20:42:55.126Z,89.07
2023-01-11T20:45:23.569Z,89.23
2023-01-11T20:47:52.076Z,89.01
2023-01-11T20:50:20.757Z,89.90
2023-01-11T20:52:50.535Z,89.65
2023-01-11T20:55:19.878Z,89.62
2023-01-11T20:57:48.882Z,89.81
2023-01-11T21:00:20.332Z,90.11
2023-01-11T21:02:50.724Z,90.29
2023-01-11T21:05:19.492Z,90.18
2023-01-11T21:07:50.798Z,90.07
2023-01-11T21:10:19.635Z,90.76
2023-01-11T21:12:50.438Z,90.60
2023-01-11T21:15:20.517Z,90.57
2023-01-11T21:17:49.093Z,90.61
2023-01-11T21:20:18.359Z,91.25
2023-01-11T21:22:47.388Z,90.67
2023-01-11T21:25:17.565Z,91.51
2023-01-11T21:27:48.832Z,91.13
2023-01-11T21:30:20.896Z,91.66
2023-01-11T21:32:49.313Z,91.52
2023-01-11T21:35:18.085Z,92.23
2023-01-11T21:37:46.821Z,91.85
2023-01-11T21:40:15.687Z,92.11
2023-01-11T21:42:44.573Z,92.50
2023-01-11T21:45:13.293Z,92.56
2023-01-11T21:47:45.642Z,92.22
2023-01-11T21:50:14.608Z,92.74
2023-01-11T21:52:43.157Z,92.24
2023-01-11T21:55:12.236Z,92.74
2023-01-11T21:57:40.889Z,93.17
2023-01-11T22:00:14.160Z,91.82
2023-01-11T22:02:44.275Z,92.66
2023-01-11T22:05:12.856Z,92.41
2023-01-11T22:07:43.735Z,92.39
2023-01-11T22:10:13.118Z,92.69
2023-01-11T22:12:41.570Z,92.41
2023-01-11T22:15:11.675Z,92.50
2023-01-11T22:17:40.191Z,92.41
2023-01-11T22:20:12.504Z,92.89
2023-01-11T22:22:40.999Z,92.25
2023-01-11T22:25:10.251Z,92.65
2023-01-11T22:27:38.751Z,91.98
2023-01-11T22:30:08.858Z,92.29
2023-01-11T22:32:37.687Z,92.71
2023-01-11T22:35:07.075Z,91.94
2023-01-11T22:37:37.055Z,92.49
2023-01-11T22:40:06.383Z,92.69
2023-01-11T22:42:34.933Z,92.72
2023-01-11T22:45:04.570Z,92.91
2023-01-11T22:47:33.160Z,92.51
2023-01-11T22:50:01.637Z,92.65
2023-01-11T22:52:30.653Z,92.75
2023-01-11T22:55:00.545Z,92.58
2023-01-11T22:57:29.833Z,92.74
2023-01-11T22:59:58.997Z,92.18
2023-01-11T23:02:27.635Z,92.44
2023-01-11T23:04:56.195Z,91.93
2023-01-11T23:07:24.767Z,92.18
2023-01-11T23:09:53.309Z,91.78
2023-01-11T23:12:40.784Z,91.02
2023-01-11T23:15:10.887Z,90.76
2023-01-11T23:17:39.363Z,90.41
2023-01-11T23:20:08.952Z,90.82
2023-01-11T23:22:37.615Z,89.94
2023-01-11T23:25:07.434Z,90.15
2023-01-11T23:27:37.883Z,89.67
2023-01-11T23:30:12.437Z,88.97
2023-01-11T23:32:57.458Z,90.25
2023-01-11T23:35:28.942Z,89.82
2023-01-11T23:37:59.307Z,90.27
2023-01-11T23:41:06.591Z,89.42
2023-01-11T23:43:42.083Z,90.05
2023-01-11T23:49:36.245Z,89.12
2023-01-11T23:52:11.642Z,89.45
2023-01-11T23:58:05.026Z,89.39
